createdAt,value
2019-03-25T00:02:22.572Z,4.10
2019-03-25T00:04:53.729Z,4.17
2019-03-25T00:07:27.694Z,4.35
2019-03-25T00:09:58.819Z,4.35
2019-03-25T00:12:29.798Z,4.37
2019-03-25T00:15:00.872Z,4.38
2019-03-25T00:17:31.983Z,4.54
2019-03-25T00:20:03.112Z,4.92
2019-03-25T00:22:34.241Z,4.92
2019-03-25T00:25:05.479Z,5.16
2019-03-25T00:27:36.622Z,5.16
2019-03-25T00:30:07.813Z,5.30
2019-03-25T00:32:39.845Z,5.35
2019-03-25T00:35:10.705Z,5.38
2019-03-25T00:37:41.541Z,5.43
2019-03-25T00:40:12.606Z,5.43
2019-03-25T00:42:43.459Z,5.45
2019-03-25T00:45:14.712Z,5.45
2019-03-25T00:47:45.567Z,5.44
2019-03-25T00:50:16.524Z,5.44
2019-03-25T00:52:47.371Z,5.45
2019-03-25T00:55:18.336Z,5.42
2019-03-25T00:57:49.203Z,5.38
2019-03-25T01:00:20.456Z,5.32
2019-03-25T01:02:51.382Z,5.26
2019-03-25T01:05:22.420Z,5.09
2019-03-25T01:07:53.443Z,4.96
2019-03-25T01:10:24.540Z,4.63
2019-03-25T01:12:55.577Z,4.63
2019-03-25T01:15:27.588Z,4.70
2019-03-25T01:17:58.474Z,4.90
2019-03-25T01:20:29.638Z,5.02
2019-03-25T01:23:00.540Z,5.16
2019-03-25T01:25:32.062Z,5.31
2019-03-25T01:30:39.163Z,5.47
2019-03-25T01:33:10.217Z,5.52
2019-03-25T01:35:41.322Z,5.61
2019-03-25T01:38:12.455Z,5.61
2019-03-25T01:40:43.554Z,5.67
2019-03-25T01:43:14.530Z,5.69
2019-03-25T01:45:45.351Z,5.72
2019-03-25T01:48:16.217Z,5.75
2019-03-25T01:50:48.027Z,5.82
2019-03-25T01:53:18.960Z,5.82
2019-03-25T01:55:51.130Z,5.85
2019-03-25T01:58:22.218Z,5.87
2019-03-25T02:00:54.671Z,5.86
2019-03-25T02:03:25.521Z,5.88
2019-03-25T02:05:56.800Z,5.88
2019-03-25T02:08:27.713Z,5.90
2019-03-25T02:10:58.500Z,5.95
2019-03-25T02:13:30.471Z,5.93
2019-03-25T02:16:01.505Z,5.93
2019-03-25T02:18:32.437Z,5.94
2019-03-25T02:21:04.561Z,5.93
2019-03-25T02:23:37.081Z,5.90
2019-03-25T02:26:07.988Z,5.85
2019-03-25T02:28:40.353Z,5.85
2019-03-25T02:31:12.563Z,5.90
2019-03-25T02:33:45.364Z,5.96
2019-03-25T02:36:16.542Z,6.03
2019-03-25T02:38:47.373Z,6.09
2019-03-25T02:41:19.302Z,6.16
2019-03-25T02:43:50.149Z,6.25
2019-03-25T02:46:21.141Z,6.24
2019-03-25T02:48:53.197Z,6.31
2019-03-25T02:51:25.122Z,6.32
2019-03-25T02:53:55.937Z,6.33
2019-03-25T02:56:27.876Z,6.34
2019-03-25T02:58:58.859Z,6.41
2019-03-25T03:01:29.970Z,6.42
2019-03-25T03:04:00.884Z,6.45
2019-03-25T03:06:31.733Z,6.40
2019-03-25T03:09:05.072Z,6.36
2019-03-25T03:11:36.038Z,6.29
2019-03-25T03:14:06.944Z,6.24
2019-03-25T03:16:38.063Z,6.19
2019-03-25T03:19:08.877Z,6.10
2019-03-25T03:21:39.845Z,6.06
2019-03-25T03:24:10.697Z,6.10
2019-03-25T03:26:42.252Z,6.18
2019-03-25T03:29:13.095Z,6.27
2019-03-25T03:31:46.593Z,6.37
2019-03-25T03:34:17.448Z,6.44
2019-03-25T03:36:50.539Z,6.49
2019-03-25T03:39:21.444Z,6.49
2019-03-25T03:41:52.248Z,6.50
2019-03-25T03:44:23.072Z,6.45
2019-03-25T03:46:53.888Z,6.40
2019-03-25T03:49:24.722Z,6.34
2019-03-25T03:51:56.302Z,6.29
2019-03-25T03:54:27.465Z,6.28
2019-03-25T03:56:58.377Z,6.33
2019-03-25T03:59:29.205Z,6.30
2019-03-25T04:02:00.011Z,6.15
2019-03-25T04:04:31.013Z,6.05
2019-03-25T04:07:02.315Z,5.94
2019-03-25T04:09:33.121Z,5.93
2019-03-25T04:12:04.396Z,5.92
2019-03-25T04:14:35.251Z,5.87
2019-03-25T04:17:06.914Z,5.87
2019-03-25T04:19:37.747Z,5.92
2019-03-25T04:22:08.868Z,5.91
2019-03-25T04:24:39.656Z,5.89
2019-03-25T04:27:10.621Z,5.82
2019-03-25T04:29:41.578Z,5.83
2019-03-25T04:32:12.441Z,5.89
2019-03-25T04:34:43.553Z,5.91
2019-03-25T04:37:14.694Z,5.88
2019-03-25T04:39:45.817Z,5.81
2019-03-25T04:42:16.673Z,5.78
2019-03-25T04:44:48.734Z,5.78
2019-03-25T04:47:19.592Z,5.83
2019-03-25T04:49:50.675Z,5.59
2019-03-25T04:52:21.628Z,5.59
2019-03-25T04:54:52.745Z,5.59
2019-03-25T04:57:23.683Z,5.63
2019-03-25T04:59:54.811Z,5.70
2019-03-25T05:02:25.699Z,5.74
2019-03-25T05:04:57.555Z,5.67
2019-03-25T05:07:28.383Z,5.63
2019-03-25T05:09:59.237Z,5.67
2019-03-25T05:12:31.255Z,5.80
2019-03-25T05:15:02.079Z,5.76
2019-03-25T05:17:33.104Z,5.80
2019-03-25T05:20:04.075Z,5.83
2019-03-25T05:22:35.184Z,5.87
2019-03-25T05:25:06.586Z,5.79
2019-03-25T05:27:37.716Z,5.85
2019-03-25T05:30:08.627Z,5.90
2019-03-25T05:32:39.755Z,6.02
2019-03-25T05:35:10.568Z,6.07
2019-03-25T05:37:41.736Z,6.05
2019-03-25T05:40:12.892Z,5.88
2019-03-25T05:42:46.448Z,5.75
2019-03-25T05:45:17.932Z,5.68
2019-03-25T05:47:48.906Z,5.62
2019-03-25T05:50:19.766Z,5.47
2019-03-25T05:52:50.619Z,5.37
2019-03-25T05:55:21.460Z,5.36
2019-03-25T05:57:52.593Z,5.41
2019-03-25T06:00:25.833Z,5.41
2019-03-25T06:02:56.924Z,5.69
2019-03-25T06:05:27.932Z,5.77
2019-03-25T06:07:58.822Z,5.78
2019-03-25T06:10:29.763Z,5.99
2019-03-25T06:13:00.993Z,5.93
2019-03-25T06:15:32.029Z,5.82
2019-03-25T06:18:02.834Z,5.88
2019-03-25T06:20:33.951Z,5.88
2019-03-25T06:23:06.067Z,5.91
2019-03-25T06:25:36.951Z,5.93
2019-03-25T06:28:07.850Z,5.96
2019-03-25T06:30:38.813Z,5.90
2019-03-25T06:33:12.706Z,5.75
2019-03-25T06:35:42.726Z,6.90
2019-03-25T06:38:14.514Z,6.90
2019-03-25T06:40:45.436Z,7.63
2019-03-25T06:43:16.588Z,8.08
2019-03-25T06:45:47.541Z,8.91
2019-03-25T06:48:19.779Z,9.17
2019-03-25T06:50:50.613Z,8.74
2019-03-25T06:53:21.460Z,8.20
2019-03-25T06:55:52.376Z,7.87
2019-03-25T06:58:23.259Z,7.74
2019-03-25T07:00:54.394Z,7.67
2019-03-25T07:03:25.448Z,7.30
2019-03-25T07:05:56.402Z,7.30
2019-03-25T07:08:27.250Z,7.57
2019-03-25T07:10:58.390Z,7.72
2019-03-25T07:13:30.112Z,7.69
2019-03-25T07:16:01.567Z,7.71
2019-03-25T07:18:32.771Z,7.74
2019-03-25T07:21:03.740Z,7.65
2019-03-25T07:23:34.610Z,7.49
2019-03-25T07:26:06.472Z,9.50
2019-03-25T07:28:38.746Z,12.30
2019-03-25T07:31:10.987Z,14.26
2019-03-25T07:33:41.980Z,16.18
2019-03-25T07:36:12.800Z,14.81
2019-03-25T07:38:43.952Z,12.84
2019-03-25T07:41:17.062Z,11.84
2019-03-25T07:43:48.881Z,11.06
2019-03-25T07:46:19.905Z,13.35
2019-03-25T07:48:51.484Z,13.30
2019-03-25T07:51:22.670Z,15.47
2019-03-25T07:53:54.442Z,18.61
2019-03-25T07:56:25.401Z,20.88
2019-03-25T07:58:56.239Z,19.07
2019-03-25T08:01:27.147Z,15.47
2019-03-25T08:03:57.948Z,18.80
2019-03-25T08:06:29.535Z,14.64
2019-03-25T08:09:03.903Z,14.64
2019-03-25T08:11:34.546Z,12.86
2019-03-25T08:14:05.503Z,11.97
2019-03-25T08:16:37.445Z,12.20
2019-03-25T08:19:08.499Z,18.63
2019-03-25T08:21:40.480Z,18.63
2019-03-25T08:24:11.684Z,20.51
2019-03-25T08:26:42.923Z,22.11
2019-03-25T08:29:15.214Z,17.45
2019-03-25T08:31:46.367Z,14.63
2019-03-25T08:34:17.296Z,12.31
2019-03-25T08:36:48.348Z,14.77
2019-03-25T08:39:19.337Z,18.35
2019-03-25T08:41:50.348Z,17.27
2019-03-25T08:44:22.680Z,19.44
2019-03-25T08:46:53.782Z,22.49
2019-03-25T08:49:24.951Z,24.17
2019-03-25T08:51:56.237Z,26.81
2019-03-25T08:54:27.663Z,23.79
2019-03-25T08:56:58.782Z,20.07
2019-03-25T08:59:29.621Z,16.86
2019-03-25T09:02:01.152Z,13.90
2019-03-25T09:04:32.315Z,11.48
2019-03-25T09:07:03.280Z,9.75
2019-03-25T09:09:34.194Z,8.44
2019-03-25T09:12:05.315Z,7.64
2019-03-25T09:14:36.141Z,7.24
2019-03-25T09:17:07.153Z,7.00
2019-03-25T09:19:38.283Z,6.79
2019-03-25T09:22:09.456Z,6.61
2019-03-25T09:24:42.250Z,6.53
2019-03-25T09:27:13.353Z,6.61
2019-03-25T09:29:45.975Z,6.57
2019-03-25T09:32:16.803Z,6.78
2019-03-25T09:34:47.675Z,6.96
2019-03-25T09:37:18.502Z,6.96
2019-03-25T09:39:49.323Z,6.88
2019-03-25T09:42:20.291Z,6.69
2019-03-25T09:44:51.402Z,6.38
2019-03-25T09:47:22.384Z,6.58
2019-03-25T09:49:53.202Z,9.31
2019-03-25T09:52:24.061Z,10.84
2019-03-25T09:54:55.141Z,10.98
2019-03-25T09:57:26.011Z,9.82
2019-03-25T09:59:57.001Z,9.31
2019-03-25T10:02:27.872Z,8.92
2019-03-25T10:04:58.995Z,9.17
2019-03-25T10:07:31.177Z,9.17
2019-03-25T10:10:02.059Z,11.30
2019-03-25T10:12:33.005Z,12.52
2019-03-25T10:15:04.650Z,10.39
2019-03-25T10:17:35.512Z,14.08
2019-03-25T10:20:07.054Z,16.24
2019-03-25T10:22:38.009Z,18.09
2019-03-25T10:25:10.414Z,20.28
2019-03-25T10:27:41.301Z,20.28
2019-03-25T10:30:13.376Z,22.30
2019-03-25T10:32:44.621Z,22.96
2019-03-25T10:35:15.746Z,22.81
2019-03-25T10:37:46.740Z,23.83
2019-03-25T10:40:18.470Z,23.20
2019-03-25T10:42:50.215Z,23.65
2019-03-25T10:45:21.450Z,24.14
2019-03-25T10:47:52.646Z,22.78
2019-03-25T10:50:23.876Z,18.19
2019-03-25T10:52:57.323Z,14.23
2019-03-25T10:55:28.204Z,11.48
2019-03-25T10:57:59.166Z,9.63
2019-03-25T11:00:30.006Z,8.42
2019-03-25T11:05:37.536Z,12.09
2019-03-25T11:08:10.450Z,16.18
2019-03-25T11:10:41.731Z,17.50
2019-03-25T11:13:12.608Z,15.92
2019-03-25T11:15:43.483Z,14.94
2019-03-25T11:18:14.293Z,12.44
2019-03-25T11:20:45.168Z,10.52
2019-03-25T11:23:16.272Z,10.52
2019-03-25T11:25:49.217Z,10.65
2019-03-25T11:28:20.042Z,10.83
2019-03-25T11:30:59.234Z,10.54
2019-03-25T11:33:31.048Z,10.58
2019-03-25T11:36:03.091Z,10.82
2019-03-25T11:38:34.179Z,11.42
2019-03-25T11:43:41.890Z,11.78
2019-03-25T11:46:12.804Z,12.13
2019-03-25T11:48:43.955Z,12.48
2019-03-25T11:51:14.773Z,12.52
2019-03-25T11:53:45.574Z,12.27
2019-03-25T11:56:16.496Z,11.57
2019-03-25T11:58:47.658Z,11.05
2019-03-25T12:01:18.515Z,11.20
2019-03-25T12:03:49.598Z,11.72
2019-03-25T12:06:20.617Z,11.49
2019-03-25T12:08:52.477Z,10.67
2019-03-25T12:11:23.777Z,9.63
2019-03-25T12:13:54.663Z,7.91
2019-03-25T12:16:25.724Z,6.66
2019-03-25T12:18:56.615Z,6.49
2019-03-25T12:21:27.487Z,6.74
2019-03-25T12:26:35.816Z,7.32
2019-03-25T12:29:06.803Z,7.72
2019-03-25T12:31:39.074Z,7.97
2019-03-25T12:34:10.051Z,8.41
2019-03-25T12:36:42.825Z,8.59
2019-03-25T12:39:13.744Z,8.79
2019-03-25T12:41:46.402Z,8.97
2019-03-25T12:44:17.245Z,8.96
2019-03-25T12:46:48.453Z,8.88
2019-03-25T12:49:19.613Z,8.51
2019-03-25T12:51:50.456Z,8.67
2019-03-25T12:54:21.380Z,8.95
2019-03-25T12:56:52.563Z,9.37
2019-03-25T12:59:23.467Z,9.87
2019-03-25T13:01:54.303Z,9.98
2019-03-25T13:04:25.560Z,10.23
2019-03-25T13:06:56.402Z,10.40
2019-03-25T13:09:27.364Z,10.74
2019-03-25T13:11:58.243Z,10.94
2019-03-25T13:14:29.489Z,11.01
2019-03-25T13:17:00.436Z,10.76
2019-03-25T13:19:31.828Z,10.79
2019-03-25T13:22:02.955Z,10.58
2019-03-25T13:24:34.150Z,10.53
2019-03-25T13:27:05.116Z,10.85
2019-03-25T13:29:36.162Z,10.62
2019-03-25T13:32:07.306Z,9.66
2019-03-25T13:34:38.314Z,8.55
2019-03-25T13:37:11.510Z,7.87
2019-03-25T13:39:42.472Z,7.87
2019-03-25T13:42:13.304Z,7.77
2019-03-25T13:44:44.144Z,7.86
2019-03-25T13:47:15.014Z,8.00
2019-03-25T13:49:45.885Z,8.01
2019-03-25T13:52:16.728Z,8.42
2019-03-25T13:54:47.582Z,8.84
2019-03-25T13:57:18.416Z,8.97
2019-03-25T13:59:49.302Z,9.22
2019-03-25T14:02:20.172Z,9.09
2019-03-25T14:04:51.003Z,9.18
2019-03-25T14:07:21.922Z,9.18
2019-03-25T14:09:52.800Z,9.15
2019-03-25T14:12:23.685Z,8.93
2019-03-25T14:14:54.551Z,8.54
2019-03-25T14:17:25.389Z,8.26
2019-03-25T14:19:56.261Z,8.16
2019-03-25T14:22:27.148Z,7.86
2019-03-25T14:24:58.022Z,7.79
2019-03-25T14:27:28.888Z,8.02
2019-03-25T14:29:59.738Z,8.32
2019-03-25T14:32:30.662Z,8.54
2019-03-25T14:35:01.591Z,8.68
2019-03-25T14:37:32.572Z,8.77
2019-03-25T14:40:03.454Z,9.06
2019-03-25T14:42:34.457Z,9.58
2019-03-25T14:45:05.816Z,9.59
2019-03-25T14:47:37.674Z,9.28
2019-03-25T14:55:43.378Z,8.51
2019-03-25T14:58:14.521Z,8.35
2019-03-25T15:00:45.888Z,8.31
2019-03-25T15:03:16.819Z,8.28
2019-03-25T15:05:47.982Z,8.36
2019-03-25T15:08:19.301Z,8.53
2019-03-25T15:10:53.683Z,9.59
2019-03-25T15:13:24.483Z,9.59
2019-03-25T15:15:56.532Z,9.60
2019-03-25T15:18:28.513Z,9.22
2019-03-25T15:20:59.399Z,8.57
2019-03-25T15:23:30.296Z,7.94
2019-03-25T15:26:01.398Z,7.65
2019-03-25T15:28:32.244Z,7.60
2019-03-25T15:31:03.383Z,7.74
2019-03-25T15:33:34.212Z,8.03
2019-03-25T15:36:05.166Z,8.21
2019-03-25T15:38:36.148Z,8.23
2019-03-25T15:41:07.752Z,8.22
2019-03-25T15:43:40.393Z,8.18
2019-03-25T15:46:11.596Z,8.13
2019-03-25T15:48:42.764Z,8.21
2019-03-25T15:51:14.412Z,8.32
2019-03-25T15:53:45.307Z,8.26
2019-03-25T15:56:16.881Z,8.34
2019-03-25T15:58:47.816Z,8.20
2019-03-25T16:01:20.001Z,8.27
2019-03-25T16:03:50.895Z,8.39
2019-03-25T16:06:22.553Z,8.60
2019-03-25T16:08:54.394Z,8.90
2019-03-25T16:11:25.562Z,9.07
2019-03-25T16:13:56.424Z,9.07
2019-03-25T16:16:28.481Z,9.07
2019-03-25T16:18:59.280Z,9.03
2019-03-25T16:21:30.256Z,9.08
2019-03-25T16:24:01.556Z,9.05
2019-03-25T16:26:32.555Z,8.97
2019-03-25T16:29:03.913Z,8.99
2019-03-25T16:31:34.810Z,9.12
2019-03-25T16:34:06.042Z,9.25
2019-03-25T16:36:37.103Z,9.30
2019-03-25T16:39:08.939Z,9.22
2019-03-25T16:41:39.994Z,9.21
2019-03-25T16:44:11.191Z,9.22
2019-03-25T16:46:42.092Z,9.19
2019-03-25T16:49:13.586Z,9.21
2019-03-25T16:51:44.514Z,9.32
2019-03-25T16:54:15.506Z,9.36
2019-03-25T16:56:46.374Z,9.34
2019-03-25T16:59:19.648Z,9.32
2019-03-25T17:01:50.512Z,9.25
2019-03-25T17:04:21.815Z,9.16
2019-03-25T17:06:53.052Z,8.96
2019-03-25T17:09:25.405Z,8.87
2019-03-25T17:11:56.319Z,8.86
2019-03-25T17:14:27.303Z,8.91
2019-03-25T17:16:58.322Z,8.91
2019-03-25T17:19:30.531Z,8.81
2019-03-25T17:22:01.528Z,8.71
2019-03-25T17:24:32.723Z,8.64
2019-03-25T17:27:03.961Z,8.53
2019-03-25T17:29:35.810Z,8.48
2019-03-25T17:32:06.997Z,8.48
2019-03-25T17:34:40.035Z,8.48
2019-03-25T17:37:11.140Z,8.45
2019-03-25T17:39:42.044Z,8.41
2019-03-25T17:42:13.277Z,8.34
2019-03-25T17:44:46.254Z,8.26
2019-03-25T17:47:17.396Z,8.16
2019-03-25T17:49:49.614Z,8.11
2019-03-25T17:52:20.681Z,8.14
2019-03-25T17:54:52.103Z,8.14
2019-03-25T17:57:23.788Z,8.15
2019-03-25T17:59:54.829Z,8.15
2019-03-25T18:02:27.285Z,8.14
2019-03-25T18:04:58.135Z,8.10
2019-03-25T18:07:30.662Z,8.12
2019-03-25T18:10:01.588Z,8.12
2019-03-25T18:12:38.721Z,7.99
2019-03-25T18:15:06.320Z,7.87
2019-03-25T18:17:37.528Z,7.85
2019-03-25T18:20:18.238Z,7.86
2019-03-25T18:22:41.738Z,7.82
2019-03-25T18:25:12.623Z,7.86
2019-03-25T18:27:43.535Z,7.84
2019-03-25T18:30:14.945Z,7.86
2019-03-25T18:32:45.841Z,7.90
2019-03-25T18:35:23.608Z,7.93
2019-03-25T18:37:54.584Z,7.91
2019-03-25T18:40:25.516Z,7.89
2019-03-25T18:42:56.962Z,7.86
2019-03-25T18:45:28.212Z,7.84
2019-03-25T18:47:59.389Z,7.78
2019-03-25T18:50:30.384Z,7.78
2019-03-25T18:53:01.394Z,7.83
2019-03-25T18:55:32.459Z,7.86
2019-03-25T18:58:03.408Z,7.89
2019-03-25T19:00:35.341Z,7.86
2019-03-25T19:03:07.445Z,7.86
2019-03-25T19:05:38.694Z,7.83
2019-03-25T19:08:10.311Z,7.81
2019-03-25T19:10:42.296Z,7.80
2019-03-25T19:13:14.103Z,7.79
2019-03-25T19:15:45.492Z,7.79
2019-03-25T19:18:16.702Z,7.75
2019-03-25T19:20:47.848Z,7.72
2019-03-25T19:23:18.994Z,7.74
2019-03-25T19:25:50.049Z,7.74
2019-03-25T19:28:22.632Z,7.80
2019-03-25T19:30:56.445Z,7.79
2019-03-25T19:33:28.676Z,7.81
2019-03-25T19:35:59.595Z,7.76
2019-03-25T19:38:30.830Z,7.68
2019-03-25T19:41:02.309Z,7.68
2019-03-25T19:43:34.709Z,7.68
2019-03-25T19:46:05.738Z,7.65
2019-03-25T19:48:36.914Z,7.63
2019-03-25T19:51:07.999Z,7.60
2019-03-25T19:53:39.827Z,7.60
2019-03-25T19:56:10.960Z,7.47
2019-03-25T19:58:42.221Z,7.32
2019-03-25T20:01:14.151Z,7.21
2019-03-25T20:03:45.158Z,7.08
2019-03-25T20:06:25.802Z,6.99
2019-03-25T20:08:50.335Z,7.05
2019-03-25T20:11:21.764Z,7.13
2019-03-25T20:13:52.808Z,7.14
2019-03-25T20:16:23.825Z,7.14
2019-03-25T20:18:54.816Z,7.16
2019-03-25T20:21:26.032Z,7.18
2019-03-25T20:23:59.404Z,7.19
2019-03-25T20:26:30.645Z,7.13
2019-03-25T20:29:01.682Z,7.15
2019-03-25T20:31:32.878Z,7.11
2019-03-25T20:34:10.847Z,7.12
2019-03-25T20:36:36.698Z,7.13
2019-03-25T20:39:09.464Z,7.13
2019-03-25T20:41:40.751Z,7.11
2019-03-25T20:44:14.059Z,7.11
2019-03-25T20:46:44.880Z,7.15
2019-03-25T20:49:15.883Z,7.14
2019-03-25T20:51:47.258Z,7.12
2019-03-25T20:54:18.401Z,7.12
2019-03-25T20:56:49.428Z,7.15
2019-03-25T20:59:20.289Z,7.13
2019-03-25T21:01:54.146Z,7.09
2019-03-25T21:04:25.439Z,7.07
2019-03-25T21:06:56.663Z,7.06
2019-03-25T21:09:27.821Z,7.04
2019-03-25T21:11:58.732Z,6.94
2019-03-25T21:14:29.600Z,6.92
2019-03-25T21:17:01.013Z,6.83
2019-03-25T21:19:32.275Z,6.83
2019-03-25T21:22:03.595Z,6.88
2019-03-25T21:24:34.408Z,6.87
2019-03-25T21:27:05.522Z,6.85
2019-03-25T21:29:36.515Z,6.85
2019-03-25T21:32:10.130Z,6.87
2019-03-25T21:34:41.232Z,6.89
2019-03-25T21:37:12.841Z,6.89
2019-03-25T21:39:44.108Z,6.92
2019-03-25T21:42:15.332Z,6.90
2019-03-25T21:44:46.296Z,6.90
2019-03-25T21:47:17.231Z,6.88
2019-03-25T21:49:48.450Z,6.84
2019-03-25T21:52:19.638Z,6.85
2019-03-25T21:54:50.499Z,6.84
2019-03-25T21:57:22.584Z,6.88
2019-03-25T21:59:53.333Z,6.86
2019-03-25T22:02:25.485Z,6.84
2019-03-25T22:04:57.390Z,6.83
2019-03-25T22:07:28.308Z,6.83
2019-03-25T22:09:59.990Z,6.81
2019-03-25T22:12:30.850Z,6.83
2019-03-25T22:15:02.049Z,6.81
2019-03-25T22:17:33.237Z,6.81
2019-03-25T22:20:04.200Z,6.86
2019-03-25T22:22:35.177Z,6.85
2019-03-25T22:25:06.332Z,6.83
2019-03-25T22:27:37.457Z,6.85
2019-03-25T22:30:08.860Z,6.84
2019-03-25T22:32:39.751Z,6.83
2019-03-25T22:35:14.165Z,6.83
2019-03-25T22:37:48.176Z,6.82
2019-03-25T22:40:24.102Z,6.81
2019-03-25T22:42:55.139Z,6.77
2019-03-25T22:45:33.627Z,6.75
2019-03-25T22:48:07.092Z,6.72
2019-03-25T22:50:37.320Z,6.69
2019-03-25T22:53:08.471Z,6.68
2019-03-25T22:55:39.698Z,6.69
2019-03-25T22:58:12.299Z,6.69
2019-03-25T23:00:49.622Z,6.69
2019-03-25T23:03:20.713Z,6.67
2019-03-25T23:05:51.914Z,6.70
2019-03-25T23:08:22.934Z,6.69
2019-03-25T23:10:54.254Z,6.70
2019-03-25T23:13:25.372Z,6.69
2019-03-25T23:15:56.311Z,6.71
2019-03-25T23:18:27.288Z,6.71
2019-03-25T23:20:58.240Z,6.72
2019-03-25T23:23:29.295Z,6.73
2019-03-25T23:26:00.419Z,6.74
2019-03-25T23:28:31.568Z,6.76
2019-03-25T23:31:06.289Z,6.74
2019-03-25T23:33:51.422Z,6.74
2019-03-25T23:36:12.362Z,6.73
2019-03-25T23:38:43.305Z,6.74
2019-03-25T23:41:14.309Z,6.72
2019-03-25T23:43:45.320Z,6.72
2019-03-25T23:46:17.877Z,6.71
2019-03-25T23:48:51.883Z,6.69
2019-03-25T23:51:23.183Z,6.67
2019-03-25T23:54:11.415Z,6.66
2019-03-25T23:56:42.724Z,6.64
2019-03-25T23:59:13.708Z,6.62
